sensor_id;sensor_type;location;lat;lon;timestamp;pressure;altitude;pressure_sealevel;temperature
40199;BMP280;25906;43.536;26.068;2023-01-13T00:01:17;99116.66;;;2.56
40199;BMP280;25906;43.536;26.068;2023-01-13T00:04:03;99120.53;;;2.61
40199;BMP280;25906;43.536;26.068;2023-01-13T00:06:49;99122.28;;;2.53
40199;BMP280;25906;43.536;26.068;2023-01-13T00:09:34;99119.47;;;2.75
40199;BMP280;25906;43.536;26.068;2023-01-13T00:12:20;99128.34;;;2.59
40199;BMP280;25906;43.536;26.068;2023-01-13T00:15:06;99126.47;;;2.78
40199;BMP280;25906;43.536;26.068;2023-01-13T00:17:52;99123.59;;;2.76
40199;BMP280;25906;43.536;26.068;2023-01-13T00:20:37;99125.31;;;2.68
40199;BMP280;25906;43.536;26.068;2023-01-13T00:23:23;99124.63;;;2.67
40199;BMP280;25906;43.536;26.068;2023-01-13T00:26:14;99136.38;;;2.48
40199;BMP280;25906;43.536;26.068;2023-01-13T00:29:00;99135.84;;;2.60
40199;BMP280;25906;43.536;26.068;2023-01-13T00:31:47;99134.63;;;2.61
40199;BMP280;25906;43.536;26.068;2023-01-13T00:34:33;99134.84;;;2.63
40199;BMP280;25906;43.536;26.068;2023-01-13T00:37:18;99135.75;;;2.71
40199;BMP280;25906;43.536;26.068;2023-01-13T00:40:04;99139.13;;;2.72
40199;BMP280;25906;43.536;26.068;2023-01-13T00:42:50;99129.38;;;2.80
40199;BMP280;25906;43.536;26.068;2023-01-13T00:45:54;99139.72;;;2.94
40199;BMP280;25906;43.536;26.068;2023-01-13T00:48:40;99136.19;;;2.81
40199;BMP280;25906;43.536;26.068;2023-01-13T00:51:25;99135.41;;;2.86
40199;BMP280;25906;43.536;26.068;2023-01-13T00:54:11;99127.94;;;2.79
40199;BMP280;25906;43.536;26.068;2023-01-13T00:56:57;99117.91;;;2.85
40199;BMP280;25906;43.536;26.068;2023-01-13T00:59:42;99121.78;;;2.84
40199;BMP280;25906;43.536;26.068;2023-01-13T01:02:28;99123.75;;;2.83
40199;BMP280;25906;43.536;26.068;2023-01-13T01:05:13;99117.22;;;2.79
40199;BMP280;25906;43.536;26.068;2023-01-13T01:07:59;99117.16;;;2.60
40199;BMP280;25906;43.536;26.068;2023-01-13T01:10:44;99116.34;;;2.65
40199;BMP280;25906;43.536;26.068;2023-01-13T01:13:29;99119.72;;;2.71
40199;BMP280;25906;43.536;26.068;2023-01-13T01:16:16;99108.97;;;2.77
40199;BMP280;25906;43.536;26.068;2023-01-13T01:19:02;99110.56;;;2.91
40199;BMP280;25906;43.536;26.068;2023-01-13T01:21:49;99109.28;;;2.73
40199;BMP280;25906;43.536;26.068;2023-01-13T01:24:34;99111.97;;;2.68
40199;BMP280;25906;43.536;26.068;2023-01-13T01:27:20;99109.09;;;2.90
40199;BMP280;25906;43.536;26.068;2023-01-13T01:30:06;99116.03;;;2.80
40199;BMP280;25906;43.536;26.068;2023-01-13T01:32:52;99111.31;;;2.62
40199;BMP280;25906;43.536;26.068;2023-01-13T01:35:38;99106.16;;;2.64
40199;BMP280;25906;43.536;26.068;2023-01-13T01:38:24;99099.75;;;2.78
40199;BMP280;25906;43.536;26.068;2023-01-13T01:41:21;99103.63;;;2.77
40199;BMP280;25906;43.536;26.068;2023-01-13T01:47:29;99094.91;;;2.76
40199;BMP280;25906;43.536;26.068;2023-01-13T01:50:17;99095.25;;;2.91
40199;BMP280;25906;43.536;26.068;2023-01-13T01:53:14;99097.06;;;2.78
40199;BMP280;25906;43.536;26.068;2023-01-13T01:56:01;99087.50;;;2.88
40199;BMP280;25906;43.536;26.068;2023-01-13T01:58:49;99091.63;;;2.89
40199;BMP280;25906;43.536;26.068;2023-01-13T02:01:36;99089.31;;;2.74
40199;BMP280;25906;43.536;26.068;2023-01-13T02:04:27;99093.31;;;2.92
40199;BMP280;25906;43.536;26.068;2023-01-13T02:07:13;99093.06;;;2.90
40199;BMP280;25906;43.536;26.068;2023-01-13T02:10:03;99087.47;;;2.93
40199;BMP280;25906;43.536;26.068;2023-01-13T02:12:49;99083.84;;;2.91
40199;BMP280;25906;43.536;26.068;2023-01-13T02:15:43;99095.13;;;2.78
40199;BMP280;25906;43.536;26.068;2023-01-13T02:18:42;99092.72;;;2.75
40199;BMP280;25906;43.536;26.068;2023-01-13T02:21:51;99087.50;;;2.88
40199;BMP280;25906;43.536;26.068;2023-01-13T02:30:46;99076.59;;;2.86
40199;BMP280;25906;43.536;26.068;2023-01-13T02:36:56;99083.84;;;2.85
40199;BMP280;25906;43.536;26.068;2023-01-13T02:39:58;99078.59;;;2.80
40199;BMP280;25906;43.536;26.068;2023-01-13T02:42:49;99087.59;;;2.77
40199;BMP280;25906;43.536;26.068;2023-01-13T02:45:57;99084.94;;;2.77
40199;BMP280;25906;43.536;26.068;2023-01-13T02:48:45;99087.28;;;2.86
40199;BMP280;25906;43.536;26.068;2023-01-13T02:51:32;99094.41;;;2.78
40199;BMP280;25906;43.536;26.068;2023-01-13T02:54:21;99082.63;;;2.92
40199;BMP280;25906;43.536;26.068;2023-01-13T02:57:10;99082.91;;;2.83
40199;BMP280;25906;43.536;26.068;2023-01-13T02:59:56;99084.88;;;2.53
40199;BMP280;25906;43.536;26.068;2023-01-13T03:02:42;99093.69;;;2.77
40199;BMP280;25906;43.536;26.068;2023-01-13T03:05:29;99093.25;;;2.73
40199;BMP280;25906;43.536;26.068;2023-01-13T03:14:57;99101.19;;;2.49
40199;BMP280;25906;43.536;26.068;2023-01-13T03:18:03;99082.44;;;2.55
40199;BMP280;25906;43.536;26.068;2023-01-13T03:23:50;99093.59;;;2.83
40199;BMP280;25906;43.536;26.068;2023-01-13T03:29:55;99092.81;;;2.93
40199;BMP280;25906;43.536;26.068;2023-01-13T03:32:49;99099.34;;;2.98
40199;BMP280;25906;43.536;26.068;2023-01-13T03:35:39;99099.88;;;2.91
40199;BMP280;25906;43.536;26.068;2023-01-13T03:38:30;99095.41;;;2.99
40199;BMP280;25906;43.536;26.068;2023-01-13T03:41:32;99099.63;;;2.89
40199;BMP280;25906;43.536;26.068;2023-01-13T03:45:13;99095.81;;;2.84
40199;BMP280;25906;43.536;26.068;2023-01-13T03:47:54;99101.09;;;2.90
40199;BMP280;25906;43.536;26.068;2023-01-13T03:50:44;99103.59;;;2.82
40199;BMP280;25906;43.536;26.068;2023-01-13T03:53:35;99105.38;;;2.98
40199;BMP280;25906;43.536;26.068;2023-01-13T03:56:43;99102.41;;;3.07
40199;BMP280;25906;43.536;26.068;2023-01-13T03:59:38;99101.94;;;3.03
40199;BMP280;25906;43.536;26.068;2023-01-13T04:05:26;99106.06;;;3.04
40199;BMP280;25906;43.536;26.068;2023-01-13T04:08:24;99115.50;;;3.10
40199;BMP280;25906;43.536;26.068;2023-01-13T04:11:16;99117.53;;;2.99
40199;BMP280;25906;43.536;26.068;2023-01-13T04:14:03;99112.63;;;3.03
40199;BMP280;25906;43.536;26.068;2023-01-13T04:16:50;99111.75;;;2.95
40199;BMP280;25906;43.536;26.068;2023-01-13T04:19:37;99119.84;;;2.84
40199;BMP280;25906;43.536;26.068;2023-01-13T04:22:22;99114.84;;;2.99
40199;BMP280;25906;43.536;26.068;2023-01-13T04:25:08;99110.31;;;2.94
40199;BMP280;25906;43.536;26.068;2023-01-13T04:27:54;99116.72;;;3.09
40199;BMP280;25906;43.536;26.068;2023-01-13T04:30:40;99120.91;;;3.00
40199;BMP280;25906;43.536;26.068;2023-01-13T04:33:25;99118.38;;;3.12
40199;BMP280;25906;43.536;26.068;2023-01-13T04:36:11;99124.00;;;3.09
40199;BMP280;25906;43.536;26.068;2023-01-13T04:38:57;99124.50;;;3.07
40199;BMP280;25906;43.536;26.068;2023-01-13T04:41:43;99120.19;;;2.99
40199;BMP280;25906;43.536;26.068;2023-01-13T04:44:43;99119.47;;;2.99
40199;BMP280;25906;43.536;26.068;2023-01-13T04:47:29;99116.53;;;3.02
40199;BMP280;25906;43.536;26.068;2023-01-13T04:50:15;99119.34;;;2.86
40199;BMP280;25906;43.536;26.068;2023-01-13T04:53:03;99125.88;;;2.90
40199;BMP280;25906;43.536;26.068;2023-01-13T04:55:50;99125.13;;;2.95
40199;BMP280;25906;43.536;26.068;2023-01-13T04:58:36;99118.81;;;2.93
40199;BMP280;25906;43.536;26.068;2023-01-13T05:01:22;99129.72;;;2.95
40199;BMP280;25906;43.536;26.068;2023-01-13T05:04:10;99126.13;;;2.63
40199;BMP280;25906;43.536;26.068;2023-01-13T05:06:55;99124.88;;;2.64
40199;BMP280;25906;43.536;26.068;2023-01-13T05:09:41;99128.00;;;2.68
40199;BMP280;25906;43.536;26.068;2023-01-13T05:12:26;99136.22;;;2.75
40199;BMP280;25906;43.536;26.068;2023-01-13T05:15:30;99123.22;;;2.90
40199;BMP280;25906;43.536;26.068;2023-01-13T05:18:34;99134.59;;;2.96
40199;BMP280;25906;43.536;26.068;2023-01-13T05:21:20;99132.06;;;2.74
40199;BMP280;25906;43.536;26.068;2023-01-13T05:24:24;99128.44;;;2.72
40199;BMP280;25906;43.536;26.068;2023-01-13T05:27:29;99136.25;;;2.99
40199;BMP280;25906;43.536;26.068;2023-01-13T05:30:15;99126.94;;;3.05
40199;BMP280;25906;43.536;26.068;2023-01-13T05:33:01;99127.69;;;3.06
40199;BMP280;25906;43.536;26.068;2023-01-13T05:35:47;99128.44;;;3.01
40199;BMP280;25906;43.536;26.068;2023-01-13T05:38:33;99130.63;;;3.03
40199;BMP280;25906;43.536;26.068;2023-01-13T05:41:18;99124.78;;;3.04
40199;BMP280;25906;43.536;26.068;2023-01-13T05:44:22;99136.47;;;3.01
40199;BMP280;25906;43.536;26.068;2023-01-13T05:47:09;99135.03;;;3.00
40199;BMP280;25906;43.536;26.068;2023-01-13T05:49:54;99139.72;;;2.94
40199;BMP280;25906;43.536;26.068;2023-01-13T05:52:40;99133.84;;;2.96
40199;BMP280;25906;43.536;26.068;2023-01-13T05:55:25;99133.22;;;2.84
40199;BMP280;25906;43.536;26.068;2023-01-13T05:58:13;99127.22;;;2.78
40199;BMP280;25906;43.536;26.068;2023-01-13T06:01:06;99137.53;;;2.93
40199;BMP280;25906;43.536;26.068;2023-01-13T06:03:52;99146.44;;;2.71
40199;BMP280;25906;43.536;26.068;2023-01-13T06:06:38;99144.31;;;2.94
40199;BMP280;25906;43.536;26.068;2023-01-13T06:09:23;99150.16;;;2.92
40199;BMP280;25906;43.536;26.068;2023-01-13T06:12:10;99151.34;;;2.97
40199;BMP280;25906;43.536;26.068;2023-01-13T06:14:56;99152.72;;;3.03
40199;BMP280;25906;43.536;26.068;2023-01-13T06:17:41;99162.44;;;3.06
40199;BMP280;25906;43.536;26.068;2023-01-13T06:20:27;99169.34;;;3.20
40199;BMP280;25906;43.536;26.068;2023-01-13T06:23:12;99164.09;;;3.14
40199;BMP280;25906;43.536;26.068;2023-01-13T06:26:08;99160.50;;;3.06
40199;BMP280;25906;43.536;26.068;2023-01-13T06:28:55;99164.34;;;3.11
40199;BMP280;25906;43.536;26.068;2023-01-13T06:31:41;99169.97;;;3.07
40199;BMP280;25906;43.536;26.068;2023-01-13T06:34:27;99174.56;;;3.12
40199;BMP280;25906;43.536;26.068;2023-01-13T06:37:13;99172.28;;;2.93
40199;BMP280;25906;43.536;26.068;2023-01-13T06:40:02;99178.44;;;3.11
40199;BMP280;25906;43.536;26.068;2023-01-13T06:42:48;99170.22;;;3.09
40199;BMP280;25906;43.536;26.068;2023-01-13T06:45:54;99178.75;;;3.03
40199;BMP280;25906;43.536;26.068;2023-01-13T06:48:40;99187.09;;;3.23
40199;BMP280;25906;43.536;26.068;2023-01-13T06:51:25;99178.31;;;3.28
40199;BMP280;25906;43.536;26.068;2023-01-13T06:54:11;99180.56;;;3.18
40199;BMP280;25906;43.536;26.068;2023-01-13T06:56:56;99190.53;;;3.18
40199;BMP280;25906;43.536;26.068;2023-01-13T06:59:42;99189.88;;;3.12
40199;BMP280;25906;43.536;26.068;2023-01-13T07:02:28;99197.03;;;3.28
40199;BMP280;25906;43.536;26.068;2023-01-13T07:05:15;99199.69;;;3.28
40199;BMP280;25906;43.536;26.068;2023-01-13T07:08:01;99199.66;;;3.33
40199;BMP280;25906;43.536;26.068;2023-01-13T07:10:47;99201.28;;;3.42
40199;BMP280;25906;43.536;26.068;2023-01-13T07:13:34;99207.66;;;3.33
40199;BMP280;25906;43.536;26.068;2023-01-13T07:16:38;99211.41;;;3.25
40199;BMP280;25906;43.536;26.068;2023-01-13T07:19:23;99220.97;;;3.44
40199;BMP280;25906;43.536;26.068;2023-01-13T07:22:12;99217.75;;;3.46
40199;BMP280;25906;43.536;26.068;2023-01-13T07:24:57;99219.00;;;3.45
40199;BMP280;25906;43.536;26.068;2023-01-13T07:27:43;99219.38;;;3.30
40199;BMP280;25906;43.536;26.068;2023-01-13T07:30:28;99210.25;;;3.44
40199;BMP280;25906;43.536;26.068;2023-01-13T07:33:14;99218.38;;;3.33
40199;BMP280;25906;43.536;26.068;2023-01-13T07:36:02;99220.22;;;3.44
40199;BMP280;25906;43.536;26.068;2023-01-13T07:38:47;99216.47;;;3.52
40199;BMP280;25906;43.536;26.068;2023-01-13T07:41:33;99211.72;;;3.45
40199;BMP280;25906;43.536;26.068;2023-01-13T07:44:37;99216.97;;;3.51
40199;BMP280;25906;43.536;26.068;2023-01-13T07:47:22;99215.09;;;3.46
40199;BMP280;25906;43.536;26.068;2023-01-13T07:50:08;99225.47;;;3.55
40199;BMP280;25906;43.536;26.068;2023-01-13T07:52:57;99216.16;;;3.37
40199;BMP280;25906;43.536;26.068;2023-01-13T07:55:42;99222.69;;;3.42
40199;BMP280;25906;43.536;26.068;2023-01-13T07:58:28;99218.06;;;3.66
40199;BMP280;25906;43.536;26.068;2023-01-13T08:01:15;99228.19;;;3.49
40199;BMP280;25906;43.536;26.068;2023-01-13T08:04:01;99213.97;;;3.36
40199;BMP280;25906;43.536;26.068;2023-01-13T08:06:46;99224.03;;;3.54
40199;BMP280;25906;43.536;26.068;2023-01-13T08:09:32;99219.84;;;3.58
40199;BMP280;25906;43.536;26.068;2023-01-13T08:12:18;99219.28;;;3.65
40199;BMP280;25906;43.536;26.068;2023-01-13T08:15:22;99227.38;;;3.60
40199;BMP280;25906;43.536;26.068;2023-01-13T08:18:07;99224.38;;;3.63
40199;BMP280;25906;43.536;26.068;2023-01-13T08:20:53;99225.19;;;3.82
40199;BMP280;25906;43.536;26.068;2023-01-13T08:23:40;99217.53;;;3.67
40199;BMP280;25906;43.536;26.068;2023-01-13T08:26:26;99224.50;;;3.76
40199;BMP280;25906;43.536;26.068;2023-01-13T08:29:11;99227.81;;;3.87
40199;BMP280;25906;43.536;26.068;2023-01-13T08:31:57;99229.41;;;3.96
40199;BMP280;25906;43.536;26.068;2023-01-13T08:34:43;99232.38;;;3.92
40199;BMP280;25906;43.536;26.068;2023-01-13T08:37:28;99231.44;;;4.08
40199;BMP280;25906;43.536;26.068;2023-01-13T08:40:14;99228.63;;;4.01
40199;BMP280;25906;43.536;26.068;2023-01-13T08:43:00;99233.72;;;4.22
40199;BMP280;25906;43.536;26.068;2023-01-13T08:45:55;99226.84;;;4.09
40199;BMP280;25906;43.536;26.068;2023-01-13T08:48:40;99231.69;;;4.10
40199;BMP280;25906;43.536;26.068;2023-01-13T08:51:26;99238.00;;;4.13
40199;BMP280;25906;43.536;26.068;2023-01-13T08:54:12;99232.34;;;4.16
40199;BMP280;25906;43.536;26.068;2023-01-13T08:56:58;99237.72;;;4.16
40199;BMP280;25906;43.536;26.068;2023-01-13T08:59:44;99238.13;;;4.20
40199;BMP280;25906;43.536;26.068;2023-01-13T09:02:30;99237.31;;;4.07
40199;BMP280;25906;43.536;26.068;2023-01-13T09:05:15;99229.50;;;4.09
40199;BMP280;25906;43.536;26.068;2023-01-13T09:08:01;99228.72;;;4.14
40199;BMP280;25906;43.536;26.068;2023-01-13T09:10:46;99227.50;;;4.15
40199;BMP280;25906;43.536;26.068;2023-01-13T09:13:32;99224.00;;;4.01
40199;BMP280;25906;43.536;26.068;2023-01-13T09:16:17;99221.59;;;3.98
40199;BMP280;25906;43.536;26.068;2023-01-13T09:19:03;99219.78;;;4.06
40199;BMP280;25906;43.536;26.068;2023-01-13T09:21:49;99211.97;;;4.08
40199;BMP280;25906;43.536;26.068;2023-01-13T09:24:34;99222.22;;;4.04
40199;BMP280;25906;43.536;26.068;2023-01-13T09:27:20;99210.63;;;4.19
40199;BMP280;25906;43.536;26.068;2023-01-13T09:30:07;99213.28;;;4.19
40199;BMP280;25906;43.536;26.068;2023-01-13T09:32:52;99206.13;;;4.09
40199;BMP280;25906;43.536;26.068;2023-01-13T09:35:58;99203.44;;;4.09
40199;BMP280;25906;43.536;26.068;2023-01-13T09:38:45;99207.78;;;4.30
40199;BMP280;25906;43.536;26.068;2023-01-13T09:41:33;99207.34;;;4.08
40199;BMP280;25906;43.536;26.068;2023-01-13T09:44:50;99207.28;;;4.14
40199;BMP280;25906;43.536;26.068;2023-01-13T09:47:44;99204.47;;;4.24
40199;BMP280;25906;43.536;26.068;2023-01-13T09:53:33;99196.97;;;4.36
40199;BMP280;25906;43.536;26.068;2023-01-13T09:56:24;99197.94;;;4.38
40199;BMP280;25906;43.536;26.068;2023-01-13T09:59:11;99201.25;;;4.63
40199;BMP280;25906;43.536;26.068;2023-01-13T10:05:08;99189.50;;;4.66
40199;BMP280;25906;43.536;26.068;2023-01-13T10:07:58;99178.00;;;4.83
40199;BMP280;25906;43.536;26.068;2023-01-13T10:10:57;99183.13;;;4.81
40199;BMP280;25906;43.536;26.068;2023-01-13T10:13:43;99182.66;;;4.83
40199;BMP280;25906;43.536;26.068;2023-01-13T10:19:25;99182.03;;;4.90
40199;BMP280;25906;43.536;26.068;2023-01-13T10:27:53;99175.66;;;4.62
40199;BMP280;25906;43.536;26.068;2023-01-13T10:30:41;99173.41;;;4.66
40199;BMP280;25906;43.536;26.068;2023-01-13T10:33:27;99171.28;;;4.77
40199;BMP280;25906;43.536;26.068;2023-01-13T10:36:17;99167.97;;;4.71
40199;BMP280;25906;43.536;26.068;2023-01-13T10:39:14;99153.28;;;4.90
40199;BMP280;25906;43.536;26.068;2023-01-13T10:42:05;99152.53;;;4.59
40199;BMP280;25906;43.536;26.068;2023-01-13T10:44:56;99145.75;;;5.02
40199;BMP280;25906;43.536;26.068;2023-01-13T10:47:41;99146.25;;;5.00
40199;BMP280;25906;43.536;26.068;2023-01-13T10:50:28;99146.66;;;5.04
40199;BMP280;25906;43.536;26.068;2023-01-13T10:53:22;99138.44;;;5.02
40199;BMP280;25906;43.536;26.068;2023-01-13T10:56:15;99142.25;;;5.07
40199;BMP280;25906;43.536;26.068;2023-01-13T10:59:25;99142.97;;;5.20
40199;BMP280;25906;43.536;26.068;2023-01-13T11:02:19;99135.44;;;5.06
40199;BMP280;25906;43.536;26.068;2023-01-13T11:05:17;99130.81;;;5.32
40199;BMP280;25906;43.536;26.068;2023-01-13T11:08:15;99131.94;;;5.24
40199;BMP280;25906;43.536;26.068;2023-01-13T11:11:01;99124.41;;;5.35
40199;BMP280;25906;43.536;26.068;2023-01-13T11:13:47;99121.22;;;5.24
40199;BMP280;25906;43.536;26.068;2023-01-13T11:16:56;99133.38;;;5.37
40199;BMP280;25906;43.536;26.068;2023-01-13T11:19:48;99117.81;;;5.49
40199;BMP280;25906;43.536;26.068;2023-01-13T11:22:43;99126.56;;;5.49
40199;BMP280;25906;43.536;26.068;2023-01-13T11:25:38;99119.13;;;5.55
40199;BMP280;25906;43.536;26.068;2023-01-13T11:28:54;99112.66;;;5.71
40199;BMP280;25906;43.536;26.068;2023-01-13T11:31:48;99114.53;;;5.76
40199;BMP280;25906;43.536;26.068;2023-01-13T11:34:38;99115.78;;;5.62
40199;BMP280;25906;43.536;26.068;2023-01-13T11:37:35;99124.25;;;5.66
40199;BMP280;25906;43.536;26.068;2023-01-13T11:40:30;99123.25;;;5.69
40199;BMP280;25906;43.536;26.068;2023-01-13T11:46:09;99123.41;;;5.71
40199;BMP280;25906;43.536;26.068;2023-01-13T11:48:55;99102.28;;;5.55
40199;BMP280;25906;43.536;26.068;2023-01-13T11:51:48;99100.53;;;5.57
40199;BMP280;25906;43.536;26.068;2023-01-13T12:16:29;99100.09;;;5.53
40199;BMP280;25906;43.536;26.068;2023-01-13T12:19:26;99092.94;;;5.82
40199;BMP280;25906;43.536;26.068;2023-01-13T12:22:26;99096.25;;;5.75
40199;BMP280;25906;43.536;26.068;2023-01-13T12:28:21;99075.22;;;5.53
40199;BMP280;25906;43.536;26.068;2023-01-13T12:31:09;99085.94;;;5.66
40199;BMP280;25906;43.536;26.068;2023-01-13T12:34:22;99091.25;;;5.58
40199;BMP280;25906;43.536;26.068;2023-01-13T12:37:44;99086.59;;;5.46
40199;BMP280;25906;43.536;26.068;2023-01-13T12:43:25;99085.66;;;5.56
40199;BMP280;25906;43.536;26.068;2023-01-13T12:52:14;99088.34;;;5.43
40199;BMP280;25906;43.536;26.068;2023-01-13T12:55:02;99089.47;;;5.61
40199;BMP280;25906;43.536;26.068;2023-01-13T13:03:32;99082.44;;;5.58
40199;BMP280;25906;43.536;26.068;2023-01-13T13:06:29;99088.22;;;5.62
40199;BMP280;25906;43.536;26.068;2023-01-13T13:09:41;99091.78;;;5.77
40199;BMP280;25906;43.536;26.068;2023-01-13T13:15:49;99096.75;;;5.86
40199;BMP280;25906;43.536;26.068;2023-01-13T13:18:35;99101.06;;;5.89
40199;BMP280;25906;43.536;26.068;2023-01-13T13:21:20;99104.28;;;5.87
40199;BMP280;25906;43.536;26.068;2023-01-13T13:24:09;99097.75;;;5.83
40199;BMP280;25906;43.536;26.068;2023-01-13T13:26:55;99100.78;;;5.80
40199;BMP280;25906;43.536;26.068;2023-01-13T13:39:22;99116.81;;;5.72
40199;BMP280;25906;43.536;26.068;2023-01-13T13:42:27;99115.03;;;5.75
40199;BMP280;25906;43.536;26.068;2023-01-13T13:45:32;99114.97;;;5.54
40199;BMP280;25906;43.536;26.068;2023-01-13T13:48:36;99117.25;;;5.63
40199;BMP280;25906;43.536;26.068;2023-01-13T13:51:34;99116.41;;;5.68
40199;BMP280;25906;43.536;26.068;2023-01-13T13:54:21;99118.03;;;5.71
40199;BMP280;25906;43.536;26.068;2023-01-13T13:57:31;99118.09;;;5.45
40199;BMP280;25906;43.536;26.068;2023-01-13T14:03:07;99120.56;;;5.69
40199;BMP280;25906;43.536;26.068;2023-01-13T14:06:05;99118.88;;;5.66
40199;BMP280;25906;43.536;26.068;2023-01-13T14:08:51;99118.47;;;5.75
40199;BMP280;25906;43.536;26.068;2023-01-13T14:11:37;99129.00;;;5.73
40199;BMP280;25906;43.536;26.068;2023-01-13T14:14:22;99122.38;;;5.74
40199;BMP280;25906;43.536;26.068;2023-01-13T14:17:22;99128.69;;;5.77
40199;BMP280;25906;43.536;26.068;2023-01-13T14:20:16;99124.03;;;5.77
40199;BMP280;25906;43.536;26.068;2023-01-13T14:23:02;99133.56;;;5.65
40199;BMP280;25906;43.536;26.068;2023-01-13T14:25:51;99130.81;;;5.32
40199;BMP280;25906;43.536;26.068;2023-01-13T14:28:37;99132.69;;;5.37
40199;BMP280;25906;43.536;26.068;2023-01-13T14:31:23;99131.81;;;5.55
40199;BMP280;25906;43.536;26.068;2023-01-13T14:34:09;99131.31;;;5.56
40199;BMP280;25906;43.536;26.068;2023-01-13T14:36:56;99131.81;;;5.55
40199;BMP280;25906;43.536;26.068;2023-01-13T14:39:42;99134.28;;;5.66
40199;BMP280;25906;43.536;26.068;2023-01-13T14:42:27;99141.41;;;5.50
40199;BMP280;25906;43.536;26.068;2023-01-13T14:45:22;99140.91;;;5.52
40199;BMP280;25906;43.536;26.068;2023-01-13T14:48:09;99142.34;;;5.40
40199;BMP280;25906;43.536;26.068;2023-01-13T14:50:54;99142.13;;;5.51
40199;BMP280;25906;43.536;26.068;2023-01-13T14:53:43;99141.75;;;5.47
40199;BMP280;25906;43.536;26.068;2023-01-13T14:56:49;99139.06;;;5.47
40199;BMP280;25906;43.536;26.068;2023-01-13T15:02:40;99140.91;;;5.65
40199;BMP280;25906;43.536;26.068;2023-01-13T15:05:30;99145.34;;;5.62
40199;BMP280;25906;43.536;26.068;2023-01-13T15:08:30;99149.69;;;5.52
40199;BMP280;25906;43.536;26.068;2023-01-13T15:11:23;99147.63;;;5.58
40199;BMP280;25906;43.536;26.068;2023-01-13T15:14:10;99151.84;;;5.54
40199;BMP280;25906;43.536;26.068;2023-01-13T15:16:56;99149.81;;;5.47
40199;BMP280;25906;43.536;26.068;2023-01-13T15:19:42;99151.13;;;5.53
40199;BMP280;25906;43.536;26.068;2023-01-13T15:22:28;99142.13;;;5.51
40199;BMP280;25906;43.536;26.068;2023-01-13T15:25:14;99141.97;;;5.49
40199;BMP280;25906;43.536;26.068;2023-01-13T15:27:59;99140.38;;;5.28
40199;BMP280;25906;43.536;26.068;2023-01-13T15:30:46;99132.34;;;5.40
40199;BMP280;25906;43.536;26.068;2023-01-13T15:33:32;99147.13;;;5.47
40199;BMP280;25906;43.536;26.068;2023-01-13T15:36:24;99141.84;;;5.41
40199;BMP280;25906;43.536;26.068;2023-01-13T15:39:11;99134.22;;;5.45
40199;BMP280;25906;43.536;26.068;2023-01-13T15:41:57;99132.34;;;5.40
40199;BMP280;25906;43.536;26.068;2023-01-13T15:45:01;99138.44;;;5.41
40199;BMP280;25906;43.536;26.068;2023-01-13T15:48:05;99143.09;;;5.40
40199;BMP280;25906;43.536;26.068;2023-01-13T15:50:51;99144.53;;;5.41
40199;BMP280;25906;43.536;26.068;2023-01-13T15:53:37;99149.91;;;5.41
40199;BMP280;25906;43.536;26.068;2023-01-13T15:56:24;99149.91;;;5.41
40199;BMP280;25906;43.536;26.068;2023-01-13T15:59:20;99150.91;;;5.38
40199;BMP280;25906;43.536;26.068;2023-01-13T16:02:11;99153.41;;;5.36
40199;BMP280;25906;43.536;26.068;2023-01-13T16:04:59;99150.81;;;5.18
40199;BMP280;25906;43.536;26.068;2023-01-13T16:07:44;99155.38;;;5.23
40199;BMP280;25906;43.536;26.068;2023-01-13T16:10:30;99158.16;;;5.18
40199;BMP280;25906;43.536;26.068;2023-01-13T16:13:15;99152.97;;;5.20
40199;BMP280;25906;43.536;26.068;2023-01-13T16:16:01;99154.13;;;5.24
40199;BMP280;25906;43.536;26.068;2023-01-13T16:18:48;99157.03;;;5.26
40199;BMP280;25906;43.536;26.068;2023-01-13T16:21:33;99161.66;;;5.26
40199;BMP280;25906;43.536;26.068;2023-01-13T16:24:19;99159.28;;;5.22
40199;BMP280;25906;43.536;26.068;2023-01-13T16:27:14;99155.38;;;5.23
40199;BMP280;25906;43.536;26.068;2023-01-13T16:29:59;99155.47;;;5.18
40199;BMP280;25906;43.536;26.068;2023-01-13T16:32:45;99150.53;;;5.22
40199;BMP280;25906;43.536;26.068;2023-01-13T16:35:30;99154.22;;;5.19
40199;BMP280;25906;43.536;26.068;2023-01-13T16:38:16;99156.16;;;5.05
40199;BMP280;25906;43.536;26.068;2023-01-13T16:41:03;99149.69;;;5.14
40199;BMP280;25906;43.536;26.068;2023-01-13T16:43:48;99150.94;;;5.26
40199;BMP280;25906;43.536;26.068;2023-01-13T16:46:34;99150.00;;;5.36
40199;BMP280;25906;43.536;26.068;2023-01-13T16:49:19;99151.03;;;5.33
40199;BMP280;25906;43.536;26.068;2023-01-13T16:52:05;99144.84;;;5.25
40199;BMP280;25906;43.536;26.068;2023-01-13T16:54:50;99142.78;;;5.31
40199;BMP280;25906;43.536;26.068;2023-01-13T16:57:36;99140.00;;;5.49
40199;BMP280;25906;43.536;26.068;2023-01-13T17:00:21;99138.13;;;5.44
40199;BMP280;25906;43.536;26.068;2023-01-13T17:03:07;99138.94;;;5.52
40199;BMP280;25906;43.536;26.068;2023-01-13T17:05:53;99132.66;;;5.50
40199;BMP280;25906;43.536;26.068;2023-01-13T17:08:38;99142.56;;;5.55
40199;BMP280;25906;43.536;26.068;2023-01-13T17:11:24;99135.84;;;5.48
40199;BMP280;25906;43.536;26.068;2023-01-13T17:14:10;99143.91;;;5.48
40199;BMP280;25906;43.536;26.068;2023-01-13T17:16:55;99142.56;;;5.55
40199;BMP280;25906;43.536;26.068;2023-01-13T17:19:41;99142.56;;;5.55
40199;BMP280;25906;43.536;26.068;2023-01-13T17:22:26;99141.41;;;5.50
40199;BMP280;25906;43.536;26.068;2023-01-13T17:25:12;99134.06;;;5.51
40199;BMP280;25906;43.536;26.068;2023-01-13T17:27:58;99140.19;;;5.38
40199;BMP280;25906;43.536;26.068;2023-01-13T17:30:43;99138.03;;;5.37
40199;BMP280;25906;43.536;26.068;2023-01-13T17:33:28;99152.38;;;5.27
40199;BMP280;25906;43.536;26.068;2023-01-13T17:36:21;99144.22;;;5.19
40199;BMP280;25906;43.536;26.068;2023-01-13T17:39:06;99143.41;;;5.24
40199;BMP280;25906;43.536;26.068;2023-01-13T17:41:52;99157.63;;;5.19
40199;BMP280;25906;43.536;26.068;2023-01-13T17:44:40;99141.94;;;5.23
40199;BMP280;25906;43.536;26.068;2023-01-13T17:47:25;99139.78;;;5.34
40199;BMP280;25906;43.536;26.068;2023-01-13T17:50:10;99138.34;;;5.33
40199;BMP280;25906;43.536;26.068;2023-01-13T17:52:56;99138.84;;;5.19
40199;BMP280;25906;43.536;26.068;2023-01-13T17:55:51;99145.25;;;5.29
40199;BMP280;25906;43.536;26.068;2023-01-13T17:58:37;99137.41;;;5.44
40199;BMP280;25906;43.536;26.068;2023-01-13T18:01:24;99139.88;;;5.42